Time;durP1;ratioP1;P1;durP2;ratioP2;P2;SDS_P1;SDS_P2;PMS_P1;PMS_P2;Temp;Humidity;BMP_temperature;BMP_pressure;BME280_temperature;BME280_humidity;BME280_pressure;Samples;Min_cycle;Max_cycle;Signal;HPM_P1;HPM_P2
2022/05/14 00:01:05;;;;;;;12.27;4.18;;;;;;;;;;5054797;28;20099;-72
2022/05/14 00:03:32;;;;;;;7.13;2.75;;;;;;;;;;5054312;28;20544;-73
2022/05/14 00:06:00;;;;;;;9.93;2.67;;;;;;;;;;5054604;28;20118;-73
2022/05/14 00:08:26;;;;;;;;;;;;;;;;;;5054965;28;20143;-73
2022/05/14 00:13:38;;;;;;;9.57;3.13;;;;;;;;;;5051507;28;20042;-73
2022/05/14 00:16:05;;;;;;;13.40;3.42;;;;;;;;;;5054028;28;20132;-73
2022/05/14 00:18:32;;;;;;;11.00;2.95;;;;;;;;;;5054725;28;20073;-73
2022/05/14 00:20:59;;;;;;;6.45;2.50;;;;;;;;;;5052891;28;20633;-73
2022/05/14 00:23:26;;;;;;;7.50;3.17;;;;;;;;;;5054678;28;20104;-72
2022/05/14 00:25:52;;;;;;;6.72;3.38;;;;;;;;;;5054198;28;20076;-73
2022/05/14 00:28:19;;;;;;;7.30;3.40;;;;;;;;;;5054208;28;20120;-73
2022/05/14 00:30:46;;;;;;;14.00;3.57;;;;;;;;;;5052874;28;20080;-73
2022/05/14 00:33:12;;;;;;;9.73;3.58;;;;;;;;;;5054286;28;20041;-73
2022/05/14 00:35:40;;;;;;;12.18;3.35;;;;;;;;;;5053866;28;20085;-73
2022/05/14 00:38:08;;;;;;;10.35;2.58;;;;;;;;;;5053845;28;20468;-73
2022/05/14 00:40:36;;;;;;;6.50;2.72;;;;;;;;;;5053811;28;20106;-73
2022/05/14 00:43:03;;;;;;;12.20;3.28;;;;;;;;;;5053869;28;20080;-74
2022/05/14 00:45:31;;;;;;;8.48;3.35;;;;;;;;;;5053196;28;20087;-74
2022/05/14 00:47:59;;;;;;;9.88;2.85;;;;;;;;;;5053338;28;20052;-74
2022/05/14 00:50:25;;;;;;;9.95;2.95;;;;;;;;;;5053606;28;20644;-74
2022/05/14 00:52:56;;;;;;;10.30;3.40;;;;;;;;;;5053696;28;20084;-74
2022/05/14 00:55:22;;;;;;;10.45;3.38;;;;;;;;;;5053742;28;20077;-73
2022/05/14 00:57:49;;;;;;;9.95;3.55;;;;;;;;;;5053619;28;20123;-73
2022/05/14 01:00:17;;;;;;;13.02;3.75;;;;;;;;;;5052198;28;20083;-73
2022/05/14 01:02:43;;;;;;;14.90;4.70;;;;;;;;;;5053611;28;20084;-73
2022/05/14 01:05:10;;;;;;;8.52;3.45;;;;;;;;;;5051902;28;20084;-72
2022/05/14 01:07:38;;;;;;;11.27;3.40;;;;;;;;;;5053507;28;20132;-73
2022/05/14 01:10:06;;;;;;;13.95;4.20;;;;;;;;;;5053399;28;20079;-73
2022/05/14 01:12:34;;;;;;;11.05;3.53;;;;;;;;;;5053459;28;20085;-73
2022/05/14 01:15:15;;;;;;;13.98;3.78;;;;;;;;;;5053143;28;20092;-72
2022/05/14 01:17:42;;;;;;;10.23;3.25;;;;;;;;;;5051782;28;20543;-73
2022/05/14 01:20:09;;;;;;;6.15;3.03;;;;;;;;;;5053376;28;20081;-72
2022/05/14 01:22:44;;;;;;;10.13;3.40;;;;;;;;;;5053011;28;20408;-73
2022/05/14 01:28:08;;;;;;;;;;;;;;;;;;5053460;28;20091;-73
2022/05/14 01:30:42;;;;;;;7.43;2.97;;;;;;;;;;5053144;28;19986;-72
2022/05/14 01:33:09;;;;;;;6.63;2.55;;;;;;;;;;5051953;28;20053;-73
2022/05/14 01:35:36;;;;;;;8.65;3.63;;;;;;;;;;5051559;28;20460;-72
2022/05/14 01:38:03;;;;;;;9.60;3.55;;;;;;;;;;5051859;28;20080;-72
2022/05/14 01:40:30;;;;;;;7.32;3.70;;;;;;;;;;5052784;28;20052;-72
2022/05/14 01:42:57;;;;;;;12.23;4.20;;;;;;;;;;5052561;28;20087;-73
2022/05/14 01:45:25;;;;;;;13.47;4.97;;;;;;;;;;5051567;28;20055;-73
2022/05/14 01:47:51;;;;;;;9.63;3.83;;;;;;;;;;5052619;28;20084;-73
2022/05/14 01:50:18;;;;;;;9.52;4.28;;;;;;;;;;5051634;28;20076;-73
2022/05/14 01:52:44;;;;;;;11.27;4.97;;;;;;;;;;5052432;28;20496;-74
2022/05/14 01:55:11;;;;;;;10.90;4.28;;;;;;;;;;5052072;28;20163;-73
2022/05/14 01:57:38;;;;;;;9.50;3.80;;;;;;;;;;5052680;28;20148;-72
2022/05/14 02:00:05;;;;;;;12.55;4.68;;;;;;;;;;5052330;28;20582;-72
2022/05/14 02:02:32;;;;;;;14.05;4.68;;;;;;;;;;5052367;28;20069;-72
2022/05/14 02:04:58;;;;;;;10.32;3.80;;;;;;;;;;5052521;28;20556;-72
2022/05/14 02:07:24;;;;;;;9.93;3.88;;;;;;;;;;5052307;28;20083;-73
2022/05/14 02:09:51;;;;;;;12.32;3.85;;;;;;;;;;5052106;28;20080;-73
2022/05/14 02:12:17;;;;;;;10.18;3.80;;;;;;;;;;5052349;28;20131;-73
2022/05/14 02:14:45;;;;;;;10.38;4.00;;;;;;;;;;5052129;28;20135;-73
2022/05/14 02:17:12;;;;;;;12.38;3.88;;;;;;;;;;5052263;28;20488;-73
2022/05/14 02:19:39;;;;;;;11.07;3.40;;;;;;;;;;5051928;28;20048;-73
2022/05/14 02:22:05;;;;;;;11.43;4.38;;;;;;;;;;5052287;28;20102;-73
2022/05/14 02:24:33;;;;;;;9.90;3.80;;;;;;;;;;5051948;28;20080;-72
2022/05/14 02:26:59;;;;;;;10.32;4.10;;;;;;;;;;5052033;28;20044;-73
2022/05/14 02:29:25;;;;;;;7.93;3.58;;;;;;;;;;5051699;28;20080;-73
2022/05/14 02:31:52;;;;;;;11.63;3.35;;;;;;;;;;5052082;28;20280;-73
2022/05/14 02:34:18;;;;;;;8.93;3.47;;;;;;;;;;5052035;28;20127;-73
2022/05/14 02:36:45;;;;;;;8.93;3.22;;;;;;;;;;5051658;28;20049;-73
2022/05/14 02:39:11;;;;;;;9.25;3.83;;;;;;;;;;5051567;28;20087;-73
2022/05/14 02:41:38;;;;;;;9.80;3.38;;;;;;;;;;5051868;28;20075;-73
2022/05/14 02:44:04;;;;;;;11.43;3.75;;;;;;;;;;5051679;28;20072;-73
2022/05/14 02:46:31;;;;;;;8.63;2.72;;;;;;;;;;5051738;28;20109;-73
2022/05/14 02:48:59;;;;;;;7.03;2.70;;;;;;;;;;5051354;28;20110;-73
2022/05/14 02:51:25;;;;;;;7.45;2.80;;;;;;;;;;5051940;28;20571;-73
2022/05/14 02:53:52;;;;;;;8.85;3.00;;;;;;;;;;5051362;28;20132;-73
2022/05/14 02:56:18;;;;;;;8.85;3.47;;;;;;;;;;5051784;28;20044;-73
2022/05/14 03:01:30;;;;;;;8.75;3.17;;;;;;;;;;5051718;28;20080;-73
2022/05/14 03:03:56;;;;;;;12.20;3.42;;;;;;;;;;5051378;28;20051;-73
2022/05/14 03:06:23;;;;;;;7.82;3.22;;;;;;;;;;5051395;28;20076;-73
2022/05/14 03:08:51;;;;;;;10.48;2.75;;;;;;;;;;5054601;28;20080;-73
2022/05/14 03:11:17;;;;;;;7.60;2.90;;;;;;;;;;5054521;28;20374;-73
2022/05/14 03:13:44;;;;;;;7.70;3.03;;;;;;;;;;5055589;28;20057;-73
2022/05/14 03:16:11;;;;;;;8.93;2.50;;;;;;;;;;5054296;28;20041;-73
2022/05/14 03:18:38;;;;;;;8.65;2.90;;;;;;;;;;5054036;28;20059;-73
2022/05/14 03:21:04;;;;;;;9.88;3.25;;;;;;;;;;5055472;28;20110;-73
2022/05/14 03:23:30;;;;;;;5.55;2.40;;;;;;;;;;5055348;28;20079;-73
2022/05/14 03:25:57;;;;;;;9.20;3.65;;;;;;;;;;5055225;28;20175;-73
2022/05/14 03:28:23;;;;;;;6.45;2.60;;;;;;;;;;5055485;28;20049;-73
2022/05/14 03:30:50;;;;;;;8.85;2.88;;;;;;;;;;5055084;28;20509;-73
2022/05/14 03:33:16;;;;;;;5.82;2.53;;;;;;;;;;5054909;28;20076;-73
2022/05/14 03:35:42;;;;;;;7.82;3.30;;;;;;;;;;5053999;28;20056;-73
2022/05/14 03:38:09;;;;;;;10.18;3.10;;;;;;;;;;5055139;28;20084;-73
2022/05/14 03:40:35;;;;;;;9.80;3.28;;;;;;;;;;5055231;28;20480;-72
2022/05/14 03:43:02;;;;;;;8.27;3.00;;;;;;;;;;5054803;28;20110;-73
2022/05/14 03:45:28;;;;;;;6.70;2.42;;;;;;;;;;5054855;28;20170;-73
2022/05/14 03:47:55;;;;;;;7.43;2.60;;;;;;;;;;5054484;28;20072;-73
2022/05/14 03:50:21;;;;;;;9.68;3.00;;;;;;;;;;5054708;28;20095;-73
2022/05/14 03:52:48;;;;;;;6.93;2.90;;;;;;;;;;5053569;28;20493;-73
2022/05/14 03:55:14;;;;;;;10.20;2.95;;;;;;;;;;5054790;28;20094;-73
2022/05/14 03:57:41;;;;;;;10.70;3.47;;;;;;;;;;5054749;28;20067;-73
2022/05/14 04:00:08;;;;;;;10.45;3.40;;;;;;;;;;5054742;28;20084;-74
2022/05/14 04:02:38;;;;;;;8.75;2.95;;;;;;;;;;5053567;28;20107;-73
2022/05/14 04:05:04;;;;;;;8.97;3.87;;;;;;;;;;5054847;28;20080;-73
2022/05/14 04:07:31;;;;;;;10.40;3.50;;;;;;;;;;5054642;28;20473;-73
2022/05/14 04:09:57;;;;;;;9.82;3.38;;;;;;;;;;5054784;28;20080;-73
2022/05/14 04:12:29;;;;;;;11.75;3.47;;;;;;;;;;5054525;28;20053;-73
2022/05/14 04:14:56;;;;;;;6.63;3.25;;;;;;;;;;5054334;28;20080;-73
2022/05/14 04:17:22;;;;;;;11.50;3.08;;;;;;;;;;5054291;28;20554;-73
2022/05/14 04:19:49;;;;;;;8.93;2.95;;;;;;;;;;5053119;28;20087;-73
2022/05/14 04:22:15;;;;;;;7.88;3.88;;;;;;;;;;5054109;28;20089;-73
2022/05/14 04:24:41;;;;;;;11.48;3.13;;;;;;;;;;5054134;28;20076;-73
2022/05/14 04:27:08;;;;;;;10.57;3.15;;;;;;;;;;5053079;28;20495;-73
2022/05/14 04:29:34;;;;;;;8.93;3.60;;;;;;;;;;5054274;28;20088;-73
2022/05/14 04:32:01;;;;;;;4.72;2.65;;;;;;;;;;5054184;28;20076;-73
2022/05/14 04:34:27;;;;;;;10.93;3.50;;;;;;;;;;5054143;28;20049;-73
2022/05/14 04:36:55;;;;;;;10.82;3.10;;;;;;;;;;5054134;28;20501;-72
2022/05/14 04:39:31;;;;;;;7.13;3.22;;;;;;;;;;5053898;28;20574;-73
2022/05/14 04:42:02;;;;;;;7.28;3.00;;;;;;;;;;5054229;28;20048;-73
2022/05/14 04:44:29;;;;;;;11.00;3.08;;;;;;;;;;5053924;28;20049;-73
2022/05/14 04:46:56;;;;;;;7.95;3.00;;;;;;;;;;5052719;28;20068;-73
2022/05/14 04:49:22;;;;;;;5.43;3.10;;;;;;;;;;5053359;28;20119;-73
2022/05/14 04:51:49;;;;;;;10.02;3.30;;;;;;;;;;5053833;28;20045;-73
2022/05/14 04:54:15;;;;;;;10.73;3.35;;;;;;;;;;5053758;28;20103;-73
2022/05/14 04:56:42;;;;;;;7.75;3.38;;;;;;;;;;5053712;28;20048;-73
2022/05/14 04:59:09;;;;;;;7.63;2.92;;;;;;;;;;5053681;28;20114;-73
2022/05/14 05:01:35;;;;;;;5.80;2.70;;;;;;;;;;5053404;28;20085;-73
2022/05/14 05:04:02;;;;;;;8.55;2.85;;;;;;;;;;5053353;28;20049;-73
2022/05/14 05:06:28;;;;;;;6.63;3.50;;;;;;;;;;5053277;28;20088;-73
2022/05/14 05:08:55;;;;;;;7.50;3.30;;;;;;;;;;5053081;28;20123;-73
2022/05/14 05:11:22;;;;;;;8.43;3.27;;;;;;;;;;5053642;28;20076;-73
2022/05/14 05:13:49;;;;;;;8.43;3.20;;;;;;;;;;5053125;28;20328;-73
2022/05/14 05:16:15;;;;;;;9.15;3.50;;;;;;;;;;5053248;28;20079;-73
2022/05/14 05:18:42;;;;;;;10.55;3.83;;;;;;;;;;5053427;28;20779;-73
2022/05/14 05:21:08;;;;;;;8.23;3.35;;;;;;;;;;5053226;28;20092;-73
2022/05/14 05:23:35;;;;;;;8.10;3.15;;;;;;;;;;5053183;28;20088;-73
2022/05/14 05:26:01;;;;;;;8.20;3.05;;;;;;;;;;5052928;28;20098;-73
2022/05/14 05:28:28;;;;;;;7.28;3.15;;;;;;;;;;5053021;28;20139;-73
2022/05/14 05:30:54;;;;;;;9.13;3.78;;;;;;;;;;5052828;28;20462;-73
2022/05/14 05:33:23;;;;;;;6.55;2.88;;;;;;;;;;5052887;28;20543;-73
2022/05/14 05:35:49;;;;;;;9.48;3.25;;;;;;;;;;5053033;28;20091;-73
2022/05/14 05:38:16;;;;;;;7.30;3.50;;;;;;;;;;5052605;28;20108;-73
2022/05/14 05:40:43;;;;;;;6.93;3.20;;;;;;;;;;5052696;28;20527;-73
2022/05/14 05:43:10;;;;;;;8.33;3.13;;;;;;;;;;5052895;28;20049;-73
2022/05/14 05:45:38;;;;;;;5.43;2.78;;;;;;;;;;5052584;28;20068;-73
2022/05/14 05:48:04;;;;;;;;;;;;;;;;;;5052912;28;20056;-73
2022/05/14 05:50:32;;;;;;;10.20;3.50;;;;;;;;;;5052770;28;19921;-73
2022/05/14 05:52:59;;;;;;;7.90;3.25;;;;;;;;;;5052430;28;20084;-72
2022/05/14 05:58:11;;;;;;;7.05;2.97;;;;;;;;;;5052677;28;20053;-74
2022/05/14 06:00:38;;;;;;;;;;;;;;;;;;5053311;28;20119;-71
2022/05/14 06:03:04;;;;;;;6.95;3.20;;;;;;;;;;5052518;28;19920;-73
2022/05/14 06:05:36;;;;;;;8.35;2.92;;;;;;;;;;5052382;28;20076;-73
2022/05/14 06:08:06;;;;;;;13.73;3.95;;;;;;;;;;5052196;28;20132;-72
2022/05/14 06:10:32;;;;;;;8.65;2.90;;;;;;;;;;5052223;28;20124;-74
2022/05/14 06:12:59;;;;;;;8.88;3.28;;;;;;;;;;5052340;28;20120;-72
2022/05/14 06:15:25;;;;;;;7.47;3.30;;;;;;;;;;5052341;28;20451;-73
2022/05/14 06:17:52;;;;;;;8.93;4.07;;;;;;;;;;5052468;28;20558;-70
2022/05/14 06:20:18;;;;;;;6.70;3.38;;;;;;;;;;5051975;28;20045;-72
2022/05/14 06:22:45;;;;;;;8.38;3.70;;;;;;;;;;5052174;28;20091;-71
2022/05/14 06:25:12;;;;;;;10.23;3.97;;;;;;;;;;5051814;28;20564;-72
2022/05/14 06:27:39;;;;;;;10.48;3.92;;;;;;;;;;5051614;28;20106;-71
2022/05/14 06:30:06;;;;;;;9.18;3.75;;;;;;;;;;5051528;28;20571;-72
2022/05/14 06:32:32;;;;;;;10.38;3.88;;;;;;;;;;5051206;28;20136;-70
2022/05/14 06:34:58;;;;;;;8.35;3.85;;;;;;;;;;5052046;28;20068;-73
2022/05/14 06:37:25;;;;;;;11.88;3.75;;;;;;;;;;5048609;28;20045;-75
2022/05/14 06:39:51;;;;;;;8.25;3.42;;;;;;;;;;5050921;28;20077;-76
2022/05/14 06:42:18;;;;;;;8.45;3.20;;;;;;;;;;5049359;28;20091;-74
2022/05/14 06:44:44;;;;;;;6.72;3.60;;;;;;;;;;5051231;28;20049;-74
2022/05/14 06:47:11;;;;;;;8.85;3.20;;;;;;;;;;5051226;28;20106;-75
2022/05/14 06:49:38;;;;;;;9.23;4.18;;;;;;;;;;5050838;28;20076;-75
2022/05/14 06:52:05;;;;;;;8.25;2.75;;;;;;;;;;5051715;28;20072;-74
2022/05/14 06:54:32;;;;;;;10.25;3.03;;;;;;;;;;5051491;28;20083;-75
2022/05/14 06:57:00;;;;;;;10.27;3.20;;;;;;;;;;5051488;28;20091;-72
2022/05/14 06:59:27;;;;;;;;;;;;;;;;;;5051723;28;20521;-73
2022/05/14 07:01:53;;;;;;;10.13;3.40;;;;;;;;;;5050448;28;19964;-70
2022/05/14 07:07:05;;;;;;;9.10;2.65;;;;;;;;;;5051097;28;20049;-75
2022/05/14 07:09:33;;;;;;;10.32;2.97;;;;;;;;;;5049558;28;20049;-76
2022/05/14 07:12:04;;;;;;;11.30;3.20;;;;;;;;;;5050296;28;20049;-75
2022/05/14 07:14:31;;;;;;;9.65;4.28;;;;;;;;;;5051264;28;20465;-76
2022/05/14 07:16:58;;;;;;;7.63;2.88;;;;;;;;;;5050867;28;20512;-76
2022/05/14 07:19:25;;;;;;;13.15;3.38;;;;;;;;;;5048485;28;20053;-75
2022/05/14 07:21:52;;;;;;;8.20;3.05;;;;;;;;;;5050438;28;20131;-76
2022/05/14 07:24:21;;;;;;;15.02;6.35;;;;;;;;;;5050964;28;20085;-76
2022/05/14 07:26:50;;;;;;;15.18;7.22;;;;;;;;;;5050174;28;20076;-74
2022/05/14 07:29:18;;;;;;;14.75;3.88;;;;;;;;;;5051074;28;20132;-75
2022/05/14 07:31:44;;;;;;;9.80;3.65;;;;;;;;;;5051082;28;20069;-74
2022/05/14 07:34:11;;;;;;;10.15;3.10;;;;;;;;;;5050180;28;20044;-76
2022/05/14 07:36:40;;;;;;;13.53;3.77;;;;;;;;;;5051133;28;20076;-73
2022/05/14 07:39:07;;;;;;;9.50;3.05;;;;;;;;;;5051339;28;20087;-73
2022/05/14 07:41:35;;;;;;;10.45;4.35;;;;;;;;;;5051324;28;20099;-74
2022/05/14 07:44:03;;;;;;;11.07;3.35;;;;;;;;;;5050694;28;20099;-75
2022/05/14 07:46:32;;;;;;;7.32;3.05;;;;;;;;;;5050613;28;20057;-73
2022/05/14 07:48:59;;;;;;;9.75;2.60;;;;;;;;;;5050755;28;20057;-75
2022/05/14 07:51:26;;;;;;;9.73;3.58;;;;;;;;;;5050205;28;20096;-76
2022/05/14 07:53:53;;;;;;;11.40;3.05;;;;;;;;;;5050946;28;20099;-74
2022/05/14 07:56:19;;;;;;;7.05;3.10;;;;;;;;;;5054170;28;20152;-79
2022/05/14 07:58:47;;;;;;;6.32;2.88;;;;;;;;;;5054647;28;20087;-74
2022/05/14 08:01:14;;;;;;;9.93;2.88;;;;;;;;;;5054752;28;20091;-80
2022/05/14 08:03:41;;;;;;;7.82;3.25;;;;;;;;;;5049882;28;20041;-78
2022/05/14 08:06:09;;;;;;;5.67;2.30;;;;;;;;;;5054093;28;20083;-77
2022/05/14 08:08:36;;;;;;;8.57;2.88;;;;;;;;;;5054569;28;20333;-74
2022/05/14 08:11:03;;;;;;;5.97;2.28;;;;;;;;;;5054525;28;20123;-78
2022/05/14 08:13:33;;;;;;;7.72;2.60;;;;;;;;;;5053967;28;20080;-73
2022/05/14 08:15:59;;;;;;;7.40;2.42;;;;;;;;;;5054276;28;20132;-73
2022/05/14 08:18:26;;;;;;;8.02;2.90;;;;;;;;;;5054485;28;20143;-72
2022/05/14 08:20:53;;;;;;;10.02;2.70;;;;;;;;;;5054038;28;20123;-71
2022/05/14 08:26:04;;;;;;;6.32;2.35;;;;;;;;;;5053754;28;20504;-72
2022/05/14 08:28:31;;;;;;;9.03;4.40;;;;;;;;;;5053785;28;20132;-71
2022/05/14 08:30:57;;;;;;;5.20;2.40;;;;;;;;;;5053683;28;20475;-71
2022/05/14 08:33:24;;;;;;;7.50;2.63;;;;;;;;;;5053405;28;20095;-71
2022/05/14 08:35:50;;;;;;;9.77;3.20;;;;;;;;;;5054098;28;20085;-78
2022/05/14 08:38:18;;;;;;;8.70;3.00;;;;;;;;;;5054211;28;20523;-80
2022/05/14 08:40:50;;;;;;;10.63;2.70;;;;;;;;;;5052801;28;20049;-72
2022/05/14 08:43:23;;;;;;;8.73;2.80;;;;;;;;;;5053728;28;20584;-72
2022/05/14 08:45:49;;;;;;;6.85;2.70;;;;;;;;;;5053643;28;20049;-72
2022/05/14 08:48:31;;;;;;;5.18;2.30;;;;;;;;;;5053586;28;20084;-72
2022/05/14 08:51:10;;;;;;;8.30;2.90;;;;;;;;;;5053478;28;20155;-72
2022/05/14 08:53:37;;;;;;;7.90;2.55;;;;;;;;;;5047484;28;20080;-72
2022/05/14 08:56:04;;;;;;;;;;;;;;;;;;5049812;28;20084;-75
2022/05/14 08:58:44;;;;;;;8.03;2.60;;;;;;;;;;5052173;28;19982;-72
2022/05/14 09:01:12;;;;;;;7.57;2.22;;;;;;;;;;5052697;28;20306;-77
2022/05/14 09:03:41;;;;;;;7.32;1.98;;;;;;;;;;5052413;28;20105;-80
2022/05/14 09:06:08;;;;;;;9.77;2.33;;;;;;;;;;5051725;28;20083;-79
2022/05/14 09:08:35;;;;;;;6.33;2.47;;;;;;;;;;5046509;28;20077;-82
2022/05/14 09:11:05;;;;;;;8.95;2.67;;;;;;;;;;5044107;28;20049;-79
2022/05/14 09:13:41;;;;;;;7.88;2.70;;;;;;;;;;5052366;28;20084;-78
2022/05/14 09:16:19;;;;;;;7.60;2.53;;;;;;;;;;5051014;28;20068;-82
2022/05/14 09:18:47;;;;;;;8.13;2.30;;;;;;;;;;5052179;28;20556;-78
2022/05/14 09:21:25;;;;;;;6.15;2.20;;;;;;;;;;5050372;28;20065;-80
2022/05/14 09:23:56;;;;;;;7.25;2.33;;;;;;;;;;5050631;28;20096;-80
2022/05/14 09:26:24;;;;;;;6.80;2.40;;;;;;;;;;5051663;28;20049;-85
2022/05/14 09:28:56;;;;;;;7.00;2.67;;;;;;;;;;5050783;28;20076;-84
2022/05/14 09:31:32;;;;;;;5.43;2.17;;;;;;;;;;5052896;28;20072;-84
2022/05/14 09:34:03;;;;;;;8.45;2.38;;;;;;;;;;5051689;28;20049;-84
2022/05/14 09:36:39;;;;;;;7.03;2.25;;;;;;;;;;5051395;28;20429;-83
2022/05/14 09:39:15;;;;;;;6.78;2.05;;;;;;;;;;5052794;28;20462;-84
2022/05/14 09:41:44;;;;;;;7.07;2.45;;;;;;;;;;5052179;28;20122;-83
2022/05/14 09:44:15;;;;;;;5.97;2.35;;;;;;;;;;5052177;28;20509;-84
2022/05/14 09:46:41;;;;;;;7.53;2.50;;;;;;;;;;5052484;28;20080;-83
2022/05/14 09:49:09;;;;;;;6.22;2.33;;;;;;;;;;5052323;28;20440;-83
2022/05/14 09:51:41;;;;;;;7.63;1.90;;;;;;;;;;5052780;28;20072;-74
2022/05/14 09:54:18;;;;;;;6.43;1.98;;;;;;;;;;5052340;28;20068;-75
2022/05/14 09:56:48;;;;;;;6.43;2.30;;;;;;;;;;5052161;28;20049;-75
2022/05/14 09:59:31;;;;;;;6.70;2.00;;;;;;;;;;5051216;28;20522;-75
2022/05/14 10:02:00;;;;;;;5.90;1.98;;;;;;;;;;5052509;28;20084;-75
2022/05/14 10:04:51;;;;;;;5.75;1.90;;;;;;;;;;5052534;28;20048;-75
2022/05/14 10:07:23;;;;;;;6.82;2.40;;;;;;;;;;5052313;28;20056;-75
2022/05/14 10:09:59;;;;;;;7.88;2.35;;;;;;;;;;5050908;28;20152;-76
2022/05/14 10:12:37;;;;;;;7.40;1.90;;;;;;;;;;5052066;28;20099;-76
2022/05/14 10:15:03;;;;;;;7.32;3.00;;;;;;;;;;5052106;28;20048;-76
2022/05/14 10:17:33;;;;;;;4.45;1.95;;;;;;;;;;5049816;28;20080;-76
2022/05/14 10:20:18;;;;;;;6.63;2.25;;;;;;;;;;5052205;28;20107;-76
2022/05/14 10:28:47;;;;;;;5.35;1.98;;;;;;;;;;5052170;28;20155;-75
2022/05/14 10:31:22;;;;;;;6.68;2.95;;;;;;;;;;5051755;28;20080;-75
2022/05/14 10:33:51;;;;;;;6.47;2.25;;;;;;;;;;5052056;28;20165;-74
2022/05/14 10:36:36;;;;;;;6.00;2.60;;;;;;;;;;5049726;28;20520;-75
2022/05/14 10:39:22;;;;;;;6.25;2.05;;;;;;;;;;5050446;28;20080;-74
2022/05/14 10:41:52;;;;;;;8.55;2.33;;;;;;;;;;5049667;28;20151;-76
2022/05/14 10:44:31;;;;;;;6.75;2.22;;;;;;;;;;5050435;28;20076;-71
2022/05/14 10:47:01;;;;;;;7.47;2.70;;;;;;;;;;5050704;28;20045;-74
2022/05/14 10:49:35;;;;;;;6.47;1.95;;;;;;;;;;5051044;28;20056;-74
2022/05/14 10:52:02;;;;;;;6.30;2.40;;;;;;;;;;5051753;28;20579;-74
2022/05/14 10:54:32;;;;;;;6.72;2.53;;;;;;;;;;5051505;28;20486;-75
2022/05/14 10:56:59;;;;;;;6.65;2.38;;;;;;;;;;5051350;28;20045;-75
2022/05/14 10:59:33;;;;;;;5.45;2.08;;;;;;;;;;5051490;28;20052;-75
2022/05/14 11:02:00;;;;;;;8.10;2.35;;;;;;;;;;5050162;28;20481;-75
2022/05/14 11:04:42;;;;;;;6.20;2.35;;;;;;;;;;5051411;28;20053;-75
2022/05/14 11:07:10;;;;;;;5.68;1.95;;;;;;;;;;5050415;28;20049;-75
2022/05/14 11:09:39;;;;;;;5.78;2.08;;;;;;;;;;5051098;28;20136;-75
2022/05/14 11:12:26;;;;;;;6.10;2.35;;;;;;;;;;5051617;28;20049;-72
2022/05/14 11:14:54;;;;;;;4.68;1.80;;;;;;;;;;5051283;28;20076;-72
2022/05/14 11:17:21;;;;;;;5.22;1.77;;;;;;;;;;5051315;28;20076;-72
2022/05/14 11:19:48;;;;;;;5.10;2.33;;;;;;;;;;5051133;28;20053;-72
2022/05/14 11:22:29;;;;;;;4.63;1.90;;;;;;;;;;5051448;28;20453;-72
2022/05/14 11:24:55;;;;;;;4.22;1.75;;;;;;;;;;5050221;28;20080;-71
2022/05/14 11:27:32;;;;;;;6.63;1.80;;;;;;;;;;5051139;28;20084;-72
2022/05/14 11:30:07;;;;;;;8.20;2.20;;;;;;;;;;5052931;28;20037;-72
2022/05/14 11:32:48;;;;;;;5.82;2.03;;;;;;;;;;5055215;28;20585;-72
2022/05/14 11:35:15;;;;;;;6.45;2.20;;;;;;;;;;5055131;28;20069;-72
2022/05/14 11:37:44;;;;;;;4.80;1.95;;;;;;;;;;5053561;28;20083;-73
2022/05/14 11:40:14;;;;;;;6.10;1.98;;;;;;;;;;5052545;28;20492;-73
2022/05/14 11:42:43;;;;;;;5.32;1.70;;;;;;;;;;5053814;28;20515;-73
2022/05/14 11:45:16;;;;;;;6.65;2.03;;;;;;;;;;5053752;28;20496;-73
2022/05/14 11:48:01;;;;;;;7.55;2.00;;;;;;;;;;5053585;28;20049;-74
2022/05/14 11:51:03;;;;;;;5.07;2.13;;;;;;;;;;5053932;28;20447;-74
2022/05/14 11:53:41;;;;;;;5.43;1.90;;;;;;;;;;5049135;28;20073;-73
2022/05/14 11:56:10;;;;;;;5.22;1.98;;;;;;;;;;5044876;28;20302;-74
2022/05/14 11:58:40;;;;;;;5.93;2.00;;;;;;;;;;5053035;28;20053;-71
2022/05/14 12:01:11;;;;;;;8.20;1.98;;;;;;;;;;5053787;28;20044;-73
2022/05/14 12:03:44;;;;;;;5.03;1.70;;;;;;;;;;5043848;28;20085;-73
2022/05/14 12:06:10;;;;;;;4.45;1.67;;;;;;;;;;5050845;28;20055;-74
2022/05/14 12:08:57;;;;;;;4.95;1.73;;;;;;;;;;5053514;28;20155;-72
2022/05/14 12:11:30;;;;;;;4.72;1.98;;;;;;;;;;5048935;28;20509;-72
2022/05/14 12:14:01;;;;;;;6.10;1.77;;;;;;;;;;5050866;28;20099;-78
2022/05/14 12:16:30;;;;;;;3.83;1.50;;;;;;;;;;5053191;28;20080;-73
2022/05/14 12:18:58;;;;;;;4.00;1.75;;;;;;;;;;5053408;28;20079;-73
2022/05/14 12:21:24;;;;;;;5.80;1.80;;;;;;;;;;5053048;28;20509;-73
2022/05/14 12:23:51;;;;;;;4.75;1.60;;;;;;;;;;5052738;28;20394;-75
2022/05/14 12:26:17;;;;;;;;;;;;;;;;;;5053812;28;20084;-72
2022/05/14 12:28:43;;;;;;;6.35;1.58;;;;;;;;;;5053069;28;19969;-74
2022/05/14 12:34:03;;;;;;;4.45;2.00;;;;;;;;;;5047586;28;20041;-75
2022/05/14 12:36:42;;;;;;;4.18;1.73;;;;;;;;;;5052096;28;20098;-77
2022/05/14 12:39:12;;;;;;;6.90;1.90;;;;;;;;;;5045390;28;20103;-72
2022/05/14 12:41:43;;;;;;;5.75;1.55;;;;;;;;;;5051302;28;20088;-73
2022/05/14 12:44:15;;;;;;;4.25;1.52;;;;;;;;;;5052645;28;20123;-73
2022/05/14 12:47:01;;;;;;;4.88;1.35;;;;;;;;;;5053251;28;20127;-70
2022/05/14 12:49:27;;;;;;;;;;;;;;;;;;5052755;28;20096;-75
2022/05/14 12:51:57;;;;;;;3.95;1.52;;;;;;;;;;5052651;28;19921;-75
2022/05/14 12:54:28;;;;;;;4.75;1.50;;;;;;;;;;5052286;28;20099;-76
2022/05/14 12:56:56;;;;;;;4.55;1.65;;;;;;;;;;5052016;28;20511;-73
2022/05/14 12:59:23;;;;;;;4.90;1.60;;;;;;;;;;5052569;28;20142;-75
2022/05/14 13:01:51;;;;;;;3.53;1.38;;;;;;;;;;5051687;28;20128;-75
2022/05/14 13:04:21;;;;;;;4.18;1.63;;;;;;;;;;5052210;28;20072;-73
2022/05/14 13:06:47;;;;;;;4.78;1.58;;;;;;;;;;5051441;28;20081;-73
2022/05/14 13:09:18;;;;;;;6.15;1.65;;;;;;;;;;5050926;28;20079;-75
2022/05/14 13:11:47;;;;;;;5.22;1.58;;;;;;;;;;5052076;28;20044;-73
2022/05/14 13:14:25;;;;;;;4.35;1.58;;;;;;;;;;5067359;28;20044;-73
2022/05/14 13:17:02;;;;;;;6.40;1.67;;;;;;;;;;5050686;28;20072;-72
2022/05/14 13:19:29;;;;;;;3.75;1.40;;;;;;;;;;5050940;28;20045;-72
2022/05/14 13:21:56;;;;;;;;;;;;;;;;;;5051869;28;20107;-72
2022/05/14 13:24:22;;;;;;;5.15;1.65;;;;;;;;;;5053322;28;19963;-72
2022/05/14 13:26:48;;;;;;;;;;;;;;;;;;5053684;28;20076;-72
2022/05/14 13:29:15;;;;;;;3.67;1.60;;;;;;;;;;5053284;28;20028;-72
2022/05/14 13:31:42;;;;;;;6.57;1.83;;;;;;;;;;5051854;28;20084;-72
2022/05/14 13:37:07;;;;;;;5.55;1.85;;;;;;;;;;5053057;28;20520;-71
2022/05/14 13:39:39;;;;;;;4.88;1.50;;;;;;;;;;5053111;28;20064;-72
2022/05/14 13:42:10;;;;;;;3.65;1.50;;;;;;;;;;5053013;28;20083;-72
2022/05/14 13:44:37;;;;;;;5.30;1.50;;;;;;;;;;5052542;28;20212;-72
2022/05/14 13:47:03;;;;;;;3.42;1.40;;;;;;;;;;5052654;28;20080;-72
2022/05/14 13:49:31;;;;;;;3.10;1.20;;;;;;;;;;5052403;28;20115;-72
2022/05/14 13:51:59;;;;;;;4.18;1.63;;;;;;;;;;5052172;28;20084;-72
2022/05/14 13:54:31;;;;;;;5.60;1.67;;;;;;;;;;5052249;28;20045;-72
2022/05/14 13:56:59;;;;;;;3.63;1.35;;;;;;;;;;5052415;28;20075;-72
2022/05/14 13:59:30;;;;;;;4.28;1.48;;;;;;;;;;5052668;28;20087;-72
2022/05/14 14:02:17;;;;;;;4.30;1.77;;;;;;;;;;5052436;28;20049;-72
2022/05/14 14:04:44;;;;;;;4.47;1.52;;;;;;;;;;5052460;28;20088;-72
2022/05/14 14:07:11;;;;;;;3.83;1.48;;;;;;;;;;5052452;28;20084;-72
2022/05/14 14:09:39;;;;;;;4.38;1.33;;;;;;;;;;5052182;28;20080;-72
2022/05/14 14:12:06;;;;;;;4.95;1.70;;;;;;;;;;5050740;28;20087;-72
2022/05/14 14:14:32;;;;;;;3.88;1.35;;;;;;;;;;5051866;28;20084;-72
2022/05/14 14:16:59;;;;;;;5.90;1.33;;;;;;;;;;5051891;28;20080;-72
2022/05/14 14:19:25;;;;;;;2.67;1.15;;;;;;;;;;5052300;28;20083;-72
2022/05/14 14:21:53;;;;;;;6.30;1.35;;;;;;;;;;5051969;28;20088;-72
2022/05/14 14:24:20;;;;;;;2.78;1.25;;;;;;;;;;5051940;28;20077;-72
2022/05/14 14:26:48;;;;;;;4.63;1.52;;;;;;;;;;5051694;28;20139;-72
2022/05/14 14:29:15;;;;;;;5.75;1.60;;;;;;;;;;5051749;28;20500;-69
2022/05/14 14:31:41;;;;;;;4.18;1.60;;;;;;;;;;5051841;28;20131;-70
2022/05/14 14:34:07;;;;;;;4.90;1.92;;;;;;;;;;5052050;28;20102;-70
2022/05/14 14:36:34;;;;;;;4.32;1.55;;;;;;;;;;5051850;28;20040;-70
2022/05/14 14:39:03;;;;;;;4.57;1.40;;;;;;;;;;5051620;28;20505;-70
2022/05/14 14:41:30;;;;;;;4.20;1.27;;;;;;;;;;5051874;28;20084;-70
2022/05/14 14:43:56;;;;;;;5.43;1.60;;;;;;;;;;5051840;28;20472;-70
2022/05/14 14:46:23;;;;;;;;;;;;;;;;;;5052129;28;20080;-70
2022/05/14 14:48:53;;;;;;;3.95;1.40;;;;;;;;;;5050141;28;20007;-70
2022/05/14 14:51:20;;;;;;;7.10;2.00;;;;;;;;;;5051374;28;20061;-70
2022/05/14 14:53:47;;;;;;;3.50;1.20;;;;;;;;;;5051494;28;20814;-70
2022/05/14 14:56:13;;;;;;;;;;;;;;;;;;5051768;28;20084;-69
2022/05/14 14:58:42;;;;;;;3.40;1.20;;;;;;;;;;5051627;28;19925;-70
2022/05/14 15:01:11;;;;;;;3.90;1.40;;;;;;;;;;5051804;28;20416;-70
2022/05/14 15:03:40;;;;;;;3.47;1.35;;;;;;;;;;5054281;28;20136;-70
2022/05/14 15:06:08;;;;;;;4.85;1.38;;;;;;;;;;5058223;28;20084;-69
2022/05/14 15:08:38;;;;;;;4.57;1.50;;;;;;;;;;5058033;28;20492;-69
2022/05/14 15:11:06;;;;;;;4.03;1.40;;;;;;;;;;5058438;28;20076;-69
2022/05/14 15:13:34;;;;;;;4.43;1.38;;;;;;;;;;5056989;28;20072;-69
2022/05/14 15:16:01;;;;;;;5.07;1.45;;;;;;;;;;5057684;28;20084;-69
2022/05/14 15:18:27;;;;;;;4.63;1.52;;;;;;;;;;5056726;28;20481;-69
2022/05/14 15:20:54;;;;;;;3.90;1.23;;;;;;;;;;5057984;28;20103;-69